sensor_id;sensor_type;location;lat;lon;timestamp;temperature;humidity
76537;DHT22;65381;51.254;15.592;2023-04-24T00:01:07;11.50;59.20
76537;DHT22;65381;51.254;15.592;2023-04-24T00:03:35;11.50;59.20
76537;DHT22;65381;51.254;15.592;2023-04-24T00:06:05;11.40;59.30
76537;DHT22;65381;51.254;15.592;2023-04-24T00:08:36;11.40;59.40
76537;DHT22;65381;51.254;15.592;2023-04-24T00:11:03;11.40;59.50
76537;DHT22;65381;51.254;15.592;2023-04-24T00:13:32;11.40;59.50
76537;DHT22;65381;51.254;15.592;2023-04-24T00:16:01;11.30;59.50
76537;DHT22;65381;51.254;15.592;2023-04-24T00:18:29;11.30;59.60
76537;DHT22;65381;51.254;15.592;2023-04-24T00:20:57;11.20;59.60
76537;DHT22;65381;51.254;15.592;2023-04-24T00:23:26;11.10;59.60
76537;DHT22;65381;51.254;15.592;2023-04-24T00:25:54;11.10;59.70
76537;DHT22;65381;51.254;15.592;2023-04-24T00:28:22;11.10;59.70
76537;DHT22;65381;51.254;15.592;2023-04-24T00:30:50;11.00;59.70
76537;DHT22;65381;51.254;15.592;2023-04-24T00:33:19;11.00;60.00
76537;DHT22;65381;51.254;15.592;2023-04-24T00:35:47;10.90;60.10
76537;DHT22;65381;51.254;15.592;2023-04-24T00:38:15;11.00;60.20
76537;DHT22;65381;51.254;15.592;2023-04-24T00:40:43;11.00;60.20
76537;DHT22;65381;51.254;15.592;2023-04-24T00:43:11;10.90;60.40
76537;DHT22;65381;51.254;15.592;2023-04-24T00:45:39;10.90;60.40
76537;DHT22;65381;51.254;15.592;2023-04-24T00:48:09;10.90;60.40
76537;DHT22;65381;51.254;15.592;2023-04-24T00:50:38;10.90;60.50
76537;DHT22;65381;51.254;15.592;2023-04-24T00:53:06;10.90;60.50
76537;DHT22;65381;51.254;15.592;2023-04-24T00:55:35;10.90;60.50
76537;DHT22;65381;51.254;15.592;2023-04-24T00:58:05;10.90;60.50
76537;DHT22;65381;51.254;15.592;2023-04-24T01:00:33;10.80;60.70
76537;DHT22;65381;51.254;15.592;2023-04-24T01:03:04;10.80;60.90
76537;DHT22;65381;51.254;15.592;2023-04-24T01:05:33;10.90;60.80
76537;DHT22;65381;51.254;15.592;2023-04-24T01:08:02;10.80;60.80
76537;DHT22;65381;51.254;15.592;2023-04-24T01:10:33;10.70;60.90
76537;DHT22;65381;51.254;15.592;2023-04-24T01:13:02;10.60;61.00
76537;DHT22;65381;51.254;15.592;2023-04-24T01:15:30;10.60;61.10
76537;DHT22;65381;51.254;15.592;2023-04-24T01:17:59;10.70;61.20
76537;DHT22;65381;51.254;15.592;2023-04-24T01:20:27;10.70;61.20
76537;DHT22;65381;51.254;15.592;2023-04-24T01:22:57;10.70;61.30
76537;DHT22;65381;51.254;15.592;2023-04-24T01:25:25;10.70;61.30
76537;DHT22;65381;51.254;15.592;2023-04-24T01:27:57;10.80;61.30
76537;DHT22;65381;51.254;15.592;2023-04-24T01:30:26;10.80;61.30
76537;DHT22;65381;51.254;15.592;2023-04-24T01:32:55;10.80;61.20
76537;DHT22;65381;51.254;15.592;2023-04-24T01:35:23;10.80;61.20
76537;DHT22;65381;51.254;15.592;2023-04-24T01:37:51;10.80;61.20
76537;DHT22;65381;51.254;15.592;2023-04-24T01:40:20;10.90;61.40
76537;DHT22;65381;51.254;15.592;2023-04-24T01:42:49;10.90;61.30
76537;DHT22;65381;51.254;15.592;2023-04-24T01:45:18;10.90;61.30
76537;DHT22;65381;51.254;15.592;2023-04-24T01:47:49;11.00;61.30
76537;DHT22;65381;51.254;15.592;2023-04-24T01:50:18;11.10;61.40
76537;DHT22;65381;51.254;15.592;2023-04-24T01:52:46;11.10;61.30
76537;DHT22;65381;51.254;15.592;2023-04-24T01:55:16;11.30;61.30
76537;DHT22;65381;51.254;15.592;2023-04-24T01:57:45;11.40;61.20
76537;DHT22;65381;51.254;15.592;2023-04-24T02:00:13;11.40;61.20
76537;DHT22;65381;51.254;15.592;2023-04-24T02:02:42;11.40;61.20
76537;DHT22;65381;51.254;15.592;2023-04-24T02:05:14;11.40;61.30
76537;DHT22;65381;51.254;15.592;2023-04-24T02:07:43;11.40;61.30
76537;DHT22;65381;51.254;15.592;2023-04-24T02:10:13;11.40;61.40
76537;DHT22;65381;51.254;15.592;2023-04-24T02:12:42;11.50;61.40
76537;DHT22;65381;51.254;15.592;2023-04-24T02:15:10;11.50;61.40
76537;DHT22;65381;51.254;15.592;2023-04-24T02:17:39;11.50;61.30
76537;DHT22;65381;51.254;15.592;2023-04-24T02:20:07;11.60;61.20
76537;DHT22;65381;51.254;15.592;2023-04-24T02:22:38;11.70;61.20
76537;DHT22;65381;51.254;15.592;2023-04-24T02:25:06;11.70;61.20
76537;DHT22;65381;51.254;15.592;2023-04-24T02:27:35;11.80;61.20
76537;DHT22;65381;51.254;15.592;2023-04-24T02:30:06;11.80;61.10
76537;DHT22;65381;51.254;15.592;2023-04-24T02:32:34;11.80;61.10
76537;DHT22;65381;51.254;15.592;2023-04-24T02:35:02;11.70;61.10
76537;DHT22;65381;51.254;15.592;2023-04-24T02:37:30;11.70;61.30
76537;DHT22;65381;51.254;15.592;2023-04-24T02:39:58;11.60;61.40
76537;DHT22;65381;51.254;15.592;2023-04-24T02:42:26;11.60;61.40
76537;DHT22;65381;51.254;15.592;2023-04-24T02:44:54;11.60;61.40
76537;DHT22;65381;51.254;15.592;2023-04-24T02:47:22;11.60;61.40
76537;DHT22;65381;51.254;15.592;2023-04-24T02:49:50;11.50;61.30
76537;DHT22;65381;51.254;15.592;2023-04-24T02:52:19;11.50;61.40
76537;DHT22;65381;51.254;15.592;2023-04-24T02:54:46;11.40;61.40
76537;DHT22;65381;51.254;15.592;2023-04-24T02:57:15;11.30;61.50
76537;DHT22;65381;51.254;15.592;2023-04-24T02:59:42;11.20;61.50
76537;DHT22;65381;51.254;15.592;2023-04-24T03:02:11;11.10;61.60
76537;DHT22;65381;51.254;15.592;2023-04-24T03:04:39;11.10;61.60
76537;DHT22;65381;51.254;15.592;2023-04-24T03:07:09;11.10;61.70
76537;DHT22;65381;51.254;15.592;2023-04-24T03:09:37;11.10;61.80
76537;DHT22;65381;51.254;15.592;2023-04-24T03:12:05;11.20;61.70
76537;DHT22;65381;51.254;15.592;2023-04-24T03:14:33;11.40;61.80
76537;DHT22;65381;51.254;15.592;2023-04-24T03:17:02;11.50;61.90
76537;DHT22;65381;51.254;15.592;2023-04-24T03:19:30;11.70;62.00
76537;DHT22;65381;51.254;15.592;2023-04-24T03:22:04;12.00;61.90
76537;DHT22;65381;51.254;15.592;2023-04-24T03:24:34;12.10;61.80
76537;DHT22;65381;51.254;15.592;2023-04-24T03:27:02;12.30;61.90
76537;DHT22;65381;51.254;15.592;2023-04-24T03:29:48;12.50;61.60
76537;DHT22;65381;51.254;15.592;2023-04-24T03:32:25;12.50;61.90
76537;DHT22;65381;51.254;15.592;2023-04-24T03:34:53;12.70;61.50
76537;DHT22;65381;51.254;15.592;2023-04-24T03:37:22;12.70;61.50
76537;DHT22;65381;51.254;15.592;2023-04-24T03:40:02;12.80;61.60
76537;DHT22;65381;51.254;15.592;2023-04-24T03:42:31;12.80;61.70
76537;DHT22;65381;51.254;15.592;2023-04-24T03:44:59;12.90;61.70
76537;DHT22;65381;51.254;15.592;2023-04-24T03:47:32;12.90;61.50
76537;DHT22;65381;51.254;15.592;2023-04-24T03:50:01;13.00;61.50
76537;DHT22;65381;51.254;15.592;2023-04-24T03:52:31;13.00;61.50
76537;DHT22;65381;51.254;15.592;2023-04-24T03:54:58;13.00;61.50
76537;DHT22;65381;51.254;15.592;2023-04-24T03:57:28;13.00;61.60
76537;DHT22;65381;51.254;15.592;2023-04-24T04:00:13;13.00;61.70
76537;DHT22;65381;51.254;15.592;2023-04-24T04:02:44;13.10;61.80
76537;DHT22;65381;51.254;15.592;2023-04-24T04:05:12;13.00;61.70
76537;DHT22;65381;51.254;15.592;2023-04-24T04:07:41;13.10;61.50
76537;DHT22;65381;51.254;15.592;2023-04-24T04:10:09;13.10;61.60
76537;DHT22;65381;51.254;15.592;2023-04-24T04:12:37;13.10;61.50
76537;DHT22;65381;51.254;15.592;2023-04-24T04:15:06;13.00;61.50
76537;DHT22;65381;51.254;15.592;2023-04-24T04:17:42;13.10;61.50
76537;DHT22;65381;51.254;15.592;2023-04-24T04:20:10;13.10;61.50
76537;DHT22;65381;51.254;15.592;2023-04-24T04:22:40;13.00;61.50
76537;DHT22;65381;51.254;15.592;2023-04-24T04:25:14;13.10;61.50
76537;DHT22;65381;51.254;15.592;2023-04-24T04:27:43;13.10;61.40
76537;DHT22;65381;51.254;15.592;2023-04-24T04:30:14;13.10;61.40
76537;DHT22;65381;51.254;15.592;2023-04-24T04:32:51;13.20;61.50
76537;DHT22;65381;51.254;15.592;2023-04-24T04:35:21;13.30;61.70
76537;DHT22;65381;51.254;15.592;2023-04-24T04:37:52;13.50;61.50
76537;DHT22;65381;51.254;15.592;2023-04-24T04:40:49;13.60;61.40
76537;DHT22;65381;51.254;15.592;2023-04-24T04:43:19;13.70;61.30
76537;DHT22;65381;51.254;15.592;2023-04-24T04:45:52;13.70;61.40
76537;DHT22;65381;51.254;15.592;2023-04-24T04:48:43;14.00;61.70
76537;DHT22;65381;51.254;15.592;2023-04-24T04:51:11;14.20;61.60
76537;DHT22;65381;51.254;15.592;2023-04-24T04:53:40;14.40;61.50
76537;DHT22;65381;51.254;15.592;2023-04-24T04:56:08;14.50;61.50
76537;DHT22;65381;51.254;15.592;2023-04-24T04:58:40;14.70;61.90
76537;DHT22;65381;51.254;15.592;2023-04-24T05:01:12;15.00;62.00
76537;DHT22;65381;51.254;15.592;2023-04-24T05:03:43;15.60;62.00
76537;DHT22;65381;51.254;15.592;2023-04-24T05:06:14;16.00;61.60
76537;DHT22;65381;51.254;15.592;2023-04-24T05:08:44;16.40;61.40
76537;DHT22;65381;51.254;15.592;2023-04-24T05:11:24;16.70;61.00
76537;DHT22;65381;51.254;15.592;2023-04-24T05:13:53;16.90;60.70
76537;DHT22;65381;51.254;15.592;2023-04-24T05:16:29;17.00;60.80
76537;DHT22;65381;51.254;15.592;2023-04-24T05:18:59;17.40;60.50
76537;DHT22;65381;51.254;15.592;2023-04-24T05:21:33;17.70;60.10
76537;DHT22;65381;51.254;15.592;2023-04-24T05:24:01;17.80;59.70
76537;DHT22;65381;51.254;15.592;2023-04-24T05:26:49;17.80;59.30
76537;DHT22;65381;51.254;15.592;2023-04-24T05:29:22;17.50;59.20
76537;DHT22;65381;51.254;15.592;2023-04-24T05:31:51;17.10;59.40
76537;DHT22;65381;51.254;15.592;2023-04-24T05:34:20;16.80;59.70
76537;DHT22;65381;51.254;15.592;2023-04-24T05:36:53;16.60;60.10
76537;DHT22;65381;51.254;15.592;2023-04-24T05:39:21;16.90;60.70
76537;DHT22;65381;51.254;15.592;2023-04-24T05:41:49;17.80;60.80
76537;DHT22;65381;51.254;15.592;2023-04-24T05:44:17;18.60;59.60
76537;DHT22;65381;51.254;15.592;2023-04-24T05:46:45;19.00;59.00
76537;DHT22;65381;51.254;15.592;2023-04-24T05:49:13;19.00;58.40
76537;DHT22;65381;51.254;15.592;2023-04-24T05:51:41;18.70;58.40
76537;DHT22;65381;51.254;15.592;2023-04-24T05:54:10;18.30;58.50
76537;DHT22;65381;51.254;15.592;2023-04-24T05:56:40;18.00;58.70
76537;DHT22;65381;51.254;15.592;2023-04-24T05:59:14;17.60;58.90
76537;DHT22;65381;51.254;15.592;2023-04-24T06:01:43;17.70;59.70
76537;DHT22;65381;51.254;15.592;2023-04-24T06:04:16;18.30;60.00
76537;DHT22;65381;51.254;15.592;2023-04-24T06:06:46;19.10;59.50
76537;DHT22;65381;51.254;15.592;2023-04-24T06:09:14;19.80;58.90
76537;DHT22;65381;51.254;15.592;2023-04-24T06:11:42;20.50;58.50
76537;DHT22;65381;51.254;15.592;2023-04-24T06:14:12;21.20;57.90
76537;DHT22;65381;51.254;15.592;2023-04-24T06:16:58;22.00;57.50
76537;DHT22;65381;51.254;15.592;2023-04-24T06:19:34;22.90;56.50
76537;DHT22;65381;51.254;15.592;2023-04-24T06:22:02;23.40;55.90
76537;DHT22;65381;51.254;15.592;2023-04-24T06:24:31;23.50;55.40
76537;DHT22;65381;51.254;15.592;2023-04-24T06:27:00;23.60;55.50
76537;DHT22;65381;51.254;15.592;2023-04-24T06:29:30;23.40;54.60
76537;DHT22;65381;51.254;15.592;2023-04-24T06:31:58;22.60;54.00
76537;DHT22;65381;51.254;15.592;2023-04-24T06:34:27;21.90;55.20
76537;DHT22;65381;51.254;15.592;2023-04-24T06:36:56;22.10;55.40
76537;DHT22;65381;51.254;15.592;2023-04-24T06:39:24;22.10;54.80
76537;DHT22;65381;51.254;15.592;2023-04-24T06:41:51;21.50;54.10
76537;DHT22;65381;51.254;15.592;2023-04-24T06:44:20;20.70;54.60
76537;DHT22;65381;51.254;15.592;2023-04-24T06:46:48;20.10;54.60
76537;DHT22;65381;51.254;15.592;2023-04-24T06:49:17;19.40;54.90
76537;DHT22;65381;51.254;15.592;2023-04-24T06:51:46;18.90;55.20
76537;DHT22;65381;51.254;15.592;2023-04-24T06:54:15;18.50;55.40
76537;DHT22;65381;51.254;15.592;2023-04-24T06:56:42;18.60;55.90
76537;DHT22;65381;51.254;15.592;2023-04-24T06:59:10;19.20;56.20
76537;DHT22;65381;51.254;15.592;2023-04-24T07:01:40;20.30;55.90
76537;DHT22;65381;51.254;15.592;2023-04-24T07:04:08;21.70;54.90
76537;DHT22;65381;51.254;15.592;2023-04-24T07:06:37;22.60;54.00
76537;DHT22;65381;51.254;15.592;2023-04-24T07:09:05;23.40;53.20
76537;DHT22;65381;51.254;15.592;2023-04-24T07:11:33;24.00;52.80
76537;DHT22;65381;51.254;15.592;2023-04-24T07:14:02;25.10;52.20
76537;DHT22;65381;51.254;15.592;2023-04-24T07:16:30;25.30;51.00
76537;DHT22;65381;51.254;15.592;2023-04-24T07:18:59;24.60;50.60
76537;DHT22;65381;51.254;15.592;2023-04-24T07:21:26;23.50;50.60
76537;DHT22;65381;51.254;15.592;2023-04-24T07:23:55;22.30;51.10
76537;DHT22;65381;51.254;15.592;2023-04-24T07:26:23;21.70;51.80
76537;DHT22;65381;51.254;15.592;2023-04-24T07:28:53;21.30;52.30
76537;DHT22;65381;51.254;15.592;2023-04-24T07:31:22;21.40;52.20
76537;DHT22;65381;51.254;15.592;2023-04-24T07:33:50;21.50;52.40
76537;DHT22;65381;51.254;15.592;2023-04-24T07:36:18;22.10;52.10
76537;DHT22;65381;51.254;15.592;2023-04-24T07:38:47;23.10;51.50
76537;DHT22;65381;51.254;15.592;2023-04-24T07:41:15;24.00;51.50
76537;DHT22;65381;51.254;15.592;2023-04-24T07:43:44;25.90;50.00
76537;DHT22;65381;51.254;15.592;2023-04-24T07:46:13;26.80;48.70
76537;DHT22;65381;51.254;15.592;2023-04-24T07:48:42;26.90;47.70
76537;DHT22;65381;51.254;15.592;2023-04-24T07:51:10;26.00;47.60
76537;DHT22;65381;51.254;15.592;2023-04-24T07:53:44;24.80;48.10
76537;DHT22;65381;51.254;15.592;2023-04-24T07:56:13;23.90;48.70
76537;DHT22;65381;51.254;15.592;2023-04-24T07:58:42;23.10;49.20
76537;DHT22;65381;51.254;15.592;2023-04-24T08:01:09;22.80;49.30
76537;DHT22;65381;51.254;15.592;2023-04-24T08:03:40;22.20;49.20
76537;DHT22;65381;51.254;15.592;2023-04-24T08:06:08;21.50;49.60
76537;DHT22;65381;51.254;15.592;2023-04-24T08:08:36;20.90;49.60
76537;DHT22;65381;51.254;15.592;2023-04-24T08:11:04;20.20;49.80
76537;DHT22;65381;51.254;15.592;2023-04-24T08:13:32;19.50;50.20
76537;DHT22;65381;51.254;15.592;2023-04-24T08:16:01;19.10;50.40
76537;DHT22;65381;51.254;15.592;2023-04-24T08:18:29;18.60;50.50
76537;DHT22;65381;51.254;15.592;2023-04-24T08:20:57;18.10;50.80
76537;DHT22;65381;51.254;15.592;2023-04-24T08:23:29;17.80;51.00
76537;DHT22;65381;51.254;15.592;2023-04-24T08:25:58;17.60;51.10
76537;DHT22;65381;51.254;15.592;2023-04-24T08:28:27;17.30;51.20
76537;DHT22;65381;51.254;15.592;2023-04-24T08:30:54;17.00;51.40
76537;DHT22;65381;51.254;15.592;2023-04-24T08:33:23;16.80;51.60
76537;DHT22;65381;51.254;15.592;2023-04-24T08:35:51;16.70;51.60
76537;DHT22;65381;51.254;15.592;2023-04-24T08:38:20;16.70;51.60
76537;DHT22;65381;51.254;15.592;2023-04-24T08:40:48;16.70;51.60
76537;DHT22;65381;51.254;15.592;2023-04-24T08:43:17;16.60;51.60
76537;DHT22;65381;51.254;15.592;2023-04-24T08:45:46;16.50;51.70
76537;DHT22;65381;51.254;15.592;2023-04-24T08:48:16;16.40;51.90
76537;DHT22;65381;51.254;15.592;2023-04-24T08:50:57;16.20;52.20
76537;DHT22;65381;51.254;15.592;2023-04-24T08:53:26;16.10;52.40
76537;DHT22;65381;51.254;15.592;2023-04-24T08:55:55;16.00;52.60
76537;DHT22;65381;51.254;15.592;2023-04-24T08:58:25;15.90;52.80
76537;DHT22;65381;51.254;15.592;2023-04-24T09:00:57;15.80;53.10
76537;DHT22;65381;51.254;15.592;2023-04-24T09:03:28;15.70;53.20
76537;DHT22;65381;51.254;15.592;2023-04-24T09:05:57;15.80;53.30
76537;DHT22;65381;51.254;15.592;2023-04-24T09:08:26;16.00;53.30
76537;DHT22;65381;51.254;15.592;2023-04-24T09:10:56;16.00;53.40
76537;DHT22;65381;51.254;15.592;2023-04-24T09:13:26;16.10;53.50
76537;DHT22;65381;51.254;15.592;2023-04-24T09:15:55;16.00;53.50
76537;DHT22;65381;51.254;15.592;2023-04-24T09:18:26;15.90;53.70
76537;DHT22;65381;51.254;15.592;2023-04-24T09:23:31;15.80;54.00
76537;DHT22;65381;51.254;15.592;2023-04-24T09:26:00;15.70;54.00
76537;DHT22;65381;51.254;15.592;2023-04-24T09:28:37;15.80;54.10
76537;DHT22;65381;51.254;15.592;2023-04-24T09:31:11;15.80;54.20
76537;DHT22;65381;51.254;15.592;2023-04-24T09:34:04;15.80;54.10
76537;DHT22;65381;51.254;15.592;2023-04-24T09:36:38;15.90;54.10
76537;DHT22;65381;51.254;15.592;2023-04-24T09:39:08;16.10;53.80
76537;DHT22;65381;51.254;15.592;2023-04-24T09:41:46;16.20;53.60
76537;DHT22;65381;51.254;15.592;2023-04-24T09:44:22;16.00;53.70
76537;DHT22;65381;51.254;15.592;2023-04-24T09:46:52;16.00;53.70
76537;DHT22;65381;51.254;15.592;2023-04-24T09:49:29;16.00;53.70
76537;DHT22;65381;51.254;15.592;2023-04-24T09:52:08;16.00;53.60
76537;DHT22;65381;51.254;15.592;2023-04-24T09:54:37;16.10;53.60
76537;DHT22;65381;51.254;15.592;2023-04-24T09:57:10;16.10;53.40
76537;DHT22;65381;51.254;15.592;2023-04-24T09:59:46;16.00;53.40
76537;DHT22;65381;51.254;15.592;2023-04-24T10:02:18;15.90;53.50
76537;DHT22;65381;51.254;15.592;2023-04-24T10:04:55;15.80;53.60
76537;DHT22;65381;51.254;15.592;2023-04-24T10:07:28;15.70;53.70
76537;DHT22;65381;51.254;15.592;2023-04-24T10:09:58;15.60;53.70
76537;DHT22;65381;51.254;15.592;2023-04-24T10:12:28;15.60;53.90
76537;DHT22;65381;51.254;15.592;2023-04-24T10:14:57;15.60;53.90
76537;DHT22;65381;51.254;15.592;2023-04-24T10:17:26;15.60;54.00
76537;DHT22;65381;51.254;15.592;2023-04-24T10:19:56;15.60;54.00
76537;DHT22;65381;51.254;15.592;2023-04-24T10:22:27;15.60;54.00
76537;DHT22;65381;51.254;15.592;2023-04-24T10:24:58;15.60;54.10
76537;DHT22;65381;51.254;15.592;2023-04-24T10:27:27;15.60;54.10
76537;DHT22;65381;51.254;15.592;2023-04-24T10:29:55;15.60;54.10
76537;DHT22;65381;51.254;15.592;2023-04-24T10:32:24;15.70;54.10
76537;DHT22;65381;51.254;15.592;2023-04-24T10:34:52;15.80;54.00
76537;DHT22;65381;51.254;15.592;2023-04-24T10:37:21;15.80;54.00
76537;DHT22;65381;51.254;15.592;2023-04-24T10:39:50;15.80;54.10
76537;DHT22;65381;51.254;15.592;2023-04-24T10:42:21;15.80;54.10
76537;DHT22;65381;51.254;15.592;2023-04-24T10:44:51;16.00;54.10
76537;DHT22;65381;51.254;15.592;2023-04-24T10:47:19;16.00;54.10
76537;DHT22;65381;51.254;15.592;2023-04-24T10:49:50;16.00;54.00
76537;DHT22;65381;51.254;15.592;2023-04-24T10:52:19;16.10;54.00
76537;DHT22;65381;51.254;15.592;2023-04-24T10:54:48;16.20;54.00
76537;DHT22;65381;51.254;15.592;2023-04-24T11:00:20;16.20;54.00
76537;DHT22;65381;51.254;15.592;2023-04-24T11:02:48;16.20;54.10
76537;DHT22;65381;51.254;15.592;2023-04-24T11:05:19;16.40;54.00
76537;DHT22;65381;51.254;15.592;2023-04-24T11:08:14;16.30;54.00
76537;DHT22;65381;51.254;15.592;2023-04-24T11:10:59;16.20;54.10
76537;DHT22;65381;51.254;15.592;2023-04-24T11:16:27;15.80;54.50
76537;DHT22;65381;51.254;15.592;2023-04-24T11:19:21;15.80;54.60
76537;DHT22;65381;51.254;15.592;2023-04-24T11:22:02;15.60;54.70
76537;DHT22;65381;51.254;15.592;2023-04-24T11:24:39;15.60;54.70
76537;DHT22;65381;51.254;15.592;2023-04-24T11:27:17;15.60;54.70
76537;DHT22;65381;51.254;15.592;2023-04-24T11:34:59;15.50;54.80
76537;DHT22;65381;51.254;15.592;2023-04-24T11:37:37;15.40;54.90
76537;DHT22;65381;51.254;15.592;2023-04-24T11:40:07;15.40;55.00
76537;DHT22;65381;51.254;15.592;2023-04-24T11:42:40;15.40;55.00
76537;DHT22;65381;51.254;15.592;2023-04-24T11:45:22;15.40;55.00
76537;DHT22;65381;51.254;15.592;2023-04-24T11:47:50;15.50;54.90
76537;DHT22;65381;51.254;15.592;2023-04-24T11:50:22;15.60;54.90
76537;DHT22;65381;51.254;15.592;2023-04-24T11:52:50;15.70;54.70
76537;DHT22;65381;51.254;15.592;2023-04-24T11:57:48;15.80;54.60
76537;DHT22;65381;51.254;15.592;2023-04-24T12:00:28;15.80;54.60
76537;DHT22;65381;51.254;15.592;2023-04-24T12:03:10;15.90;54.60
76537;DHT22;65381;51.254;15.592;2023-04-24T12:05:40;15.90;54.60
76537;DHT22;65381;51.254;15.592;2023-04-24T12:08:08;15.90;54.60
76537;DHT22;65381;51.254;15.592;2023-04-24T12:10:36;16.00;54.60
76537;DHT22;65381;51.254;15.592;2023-04-24T12:13:05;16.00;54.70
76537;DHT22;65381;51.254;15.592;2023-04-24T12:15:33;16.00;54.70
76537;DHT22;65381;51.254;15.592;2023-04-24T12:18:03;16.00;54.80
76537;DHT22;65381;51.254;15.592;2023-04-24T12:20:32;15.90;54.90
76537;DHT22;65381;51.254;15.592;2023-04-24T12:23:01;15.80;55.00
76537;DHT22;65381;51.254;15.592;2023-04-24T12:25:31;15.90;55.10
76537;DHT22;65381;51.254;15.592;2023-04-24T12:30:39;16.00;55.00
76537;DHT22;65381;51.254;15.592;2023-04-24T12:33:08;16.00;55.00
76537;DHT22;65381;51.254;15.592;2023-04-24T12:35:36;16.00;55.10
76537;DHT22;65381;51.254;15.592;2023-04-24T12:38:13;15.90;55.20
76537;DHT22;65381;51.254;15.592;2023-04-24T12:40:42;16.00;55.30
76537;DHT22;65381;51.254;15.592;2023-04-24T12:43:19;16.00;55.40
76537;DHT22;65381;51.254;15.592;2023-04-24T12:45:48;16.00;55.50
76537;DHT22;65381;51.254;15.592;2023-04-24T12:48:16;16.00;55.50
76537;DHT22;65381;51.254;15.592;2023-04-24T12:50:45;16.00;55.90
76537;DHT22;65381;51.254;15.592;2023-04-24T12:53:14;15.80;56.40
76537;DHT22;65381;51.254;15.592;2023-04-24T12:55:45;15.80;56.60
76537;DHT22;65381;51.254;15.592;2023-04-24T12:58:14;15.60;57.00
76537;DHT22;65381;51.254;15.592;2023-04-24T13:00:43;15.40;57.20
76537;DHT22;65381;51.254;15.592;2023-04-24T13:03:13;15.40;57.40
76537;DHT22;65381;51.254;15.592;2023-04-24T13:05:44;15.40;57.40
76537;DHT22;65381;51.254;15.592;2023-04-24T13:08:12;15.50;57.40
76537;DHT22;65381;51.254;15.592;2023-04-24T13:10:40;15.50;57.40
76537;DHT22;65381;51.254;15.592;2023-04-24T13:13:08;15.40;57.50
76537;DHT22;65381;51.254;15.592;2023-04-24T13:15:36;15.40;57.60
76537;DHT22;65381;51.254;15.592;2023-04-24T13:18:04;15.40;57.60
76537;DHT22;65381;51.254;15.592;2023-04-24T13:20:32;15.20;57.70
76537;DHT22;65381;51.254;15.592;2023-04-24T13:23:01;15.00;57.90
76537;DHT22;65381;51.254;15.592;2023-04-24T13:25:35;14.90;58.00
76537;DHT22;65381;51.254;15.592;2023-04-24T13:28:03;14.90;58.20
76537;DHT22;65381;51.254;15.592;2023-04-24T13:30:31;14.80;58.20
76537;DHT22;65381;51.254;15.592;2023-04-24T13:33:00;14.80;58.40
76537;DHT22;65381;51.254;15.592;2023-04-24T13:35:28;14.70;58.50
76537;DHT22;65381;51.254;15.592;2023-04-24T13:37:57;14.70;58.60
76537;DHT22;65381;51.254;15.592;2023-04-24T13:40:25;14.70;58.60
76537;DHT22;65381;51.254;15.592;2023-04-24T13:42:54;14.60;58.60
76537;DHT22;65381;51.254;15.592;2023-04-24T13:45:22;14.60;58.70
76537;DHT22;65381;51.254;15.592;2023-04-24T13:47:53;14.60;58.60
76537;DHT22;65381;51.254;15.592;2023-04-24T13:50:24;14.70;58.50
76537;DHT22;65381;51.254;15.592;2023-04-24T13:52:54;14.80;58.50
76537;DHT22;65381;51.254;15.592;2023-04-24T13:55:24;15.00;58.40
76537;DHT22;65381;51.254;15.592;2023-04-24T13:57:54;15.20;58.20
76537;DHT22;65381;51.254;15.592;2023-04-24T14:00:22;15.20;58.20
76537;DHT22;65381;51.254;15.592;2023-04-24T14:02:52;15.30;58.20
76537;DHT22;65381;51.254;15.592;2023-04-24T14:05:20;15.50;58.20
76537;DHT22;65381;51.254;15.592;2023-04-24T14:07:50;15.70;58.10
76537;DHT22;65381;51.254;15.592;2023-04-24T14:10:19;15.80;58.10
76537;DHT22;65381;51.254;15.592;2023-04-24T14:12:48;16.10;58.10
76537;DHT22;65381;51.254;15.592;2023-04-24T14:15:16;16.50;57.90
76537;DHT22;65381;51.254;15.592;2023-04-24T14:17:44;16.70;57.70
76537;DHT22;65381;51.254;15.592;2023-04-24T14:20:12;16.90;57.70
76537;DHT22;65381;51.254;15.592;2023-04-24T14:22:41;17.10;57.80
76537;DHT22;65381;51.254;15.592;2023-04-24T14:25:09;17.40;57.80
76537;DHT22;65381;51.254;15.592;2023-04-24T14:27:37;17.50;57.60
76537;DHT22;65381;51.254;15.592;2023-04-24T14:30:06;17.70;57.60
76537;DHT22;65381;51.254;15.592;2023-04-24T14:32:35;17.90;57.60
76537;DHT22;65381;51.254;15.592;2023-04-24T14:35:04;18.00;57.40
76537;DHT22;65381;51.254;15.592;2023-04-24T14:37:32;18.10;57.60
76537;DHT22;65381;51.254;15.592;2023-04-24T14:40:01;18.30;57.50
76537;DHT22;65381;51.254;15.592;2023-04-24T14:42:49;18.40;57.40
76537;DHT22;65381;51.254;15.592;2023-04-24T14:45:18;18.50;57.30
76537;DHT22;65381;51.254;15.592;2023-04-24T14:47:46;18.70;57.30
76537;DHT22;65381;51.254;15.592;2023-04-24T14:50:14;18.80;57.30
76537;DHT22;65381;51.254;15.592;2023-04-24T14:52:42;19.10;57.10
76537;DHT22;65381;51.254;15.592;2023-04-24T14:55:10;19.30;56.80
76537;DHT22;65381;51.254;15.592;2023-04-24T14:57:39;19.40;56.50
76537;DHT22;65381;51.254;15.592;2023-04-24T15:00:07;19.40;56.40
76537;DHT22;65381;51.254;15.592;2023-04-24T15:02:37;19.30;56.50
76537;DHT22;65381;51.254;15.592;2023-04-24T15:05:10;19.30;56.40
76537;DHT22;65381;51.254;15.592;2023-04-24T15:07:39;19.20;56.20
76537;DHT22;65381;51.254;15.592;2023-04-24T15:10:09;18.90;56.30
76537;DHT22;65381;51.254;15.592;2023-04-24T15:12:39;18.60;56.40
76537;DHT22;65381;51.254;15.592;2023-04-24T15:15:08;18.30;56.40
76537;DHT22;65381;51.254;15.592;2023-04-24T15:17:36;18.00;56.40
76537;DHT22;65381;51.254;15.592;2023-04-24T15:20:05;17.70;56.70
76537;DHT22;65381;51.254;15.592;2023-04-24T15:22:34;17.50;56.70
76537;DHT22;65381;51.254;15.592;2023-04-24T15:25:03;17.30;56.70
76537;DHT22;65381;51.254;15.592;2023-04-24T15:27:44;17.10;56.60
76537;DHT22;65381;51.254;15.592;2023-04-24T15:30:13;16.90;56.70
76537;DHT22;65381;51.254;15.592;2023-04-24T15:32:42;16.60;56.80
76537;DHT22;65381;51.254;15.592;2023-04-24T15:35:11;16.50;56.90
76537;DHT22;65381;51.254;15.592;2023-04-24T15:37:39;16.20;56.80
76537;DHT22;65381;51.254;15.592;2023-04-24T15:40:08;15.80;56.80
76537;DHT22;65381;51.254;15.592;2023-04-24T15:42:40;15.60;57.00
76537;DHT22;65381;51.254;15.592;2023-04-24T15:45:09;15.40;56.90
76537;DHT22;65381;51.254;15.592;2023-04-24T15:47:39;15.20;57.00
76537;DHT22;65381;51.254;15.592;2023-04-24T15:50:07;15.00;57.00
76537;DHT22;65381;51.254;15.592;2023-04-24T15:52:42;14.80;57.10